Time;durP1;ratioP1;P1;durP2;ratioP2;P2;SDS_P1;SDS_P2;PMS_P1;PMS_P2;Temp;Humidity;BMP_temperature;BMP_pressure;BME280_temperature;BME280_humidity;BME280_pressure;Samples;Min_cycle;Max_cycle;Signal;HPM_P1;HPM_P2
2021/07/25 00:00:06;;;;;;;14.88;13.18;;;;;;;17.79;100.00;100755.63;5240949;28;20058;-68
2021/07/25 00:02:38;;;;;;;13.88;12.35;;;;;;;17.82;100.00;100753.44;5269610;28;20554;-68
2021/07/25 00:05:10;;;;;;;12.88;11.68;;;;;;;17.82;100.00;100748.13;5271089;28;20103;-68
2021/07/25 00:07:41;;;;;;;14.03;12.63;;;;;;;17.80;100.00;100755.44;5271752;28;20029;-68
2021/07/25 00:10:12;;;;;;;15.23;12.27;;;;;;;17.81;100.00;100748.31;5269026;28;20064;-68
2021/07/25 00:12:43;;;;;;;13.23;11.83;;;;;;;17.78;100.00;100744.19;5268338;28;20477;-68
2021/07/25 00:15:15;;;;;;;13.98;12.30;;;;;;;17.80;100.00;100758.06;5269403;28;20024;-68
2021/07/25 00:17:46;;;;;;;13.18;11.77;;;;;;;17.76;100.00;100751.50;5268887;28;20032;-68
2021/07/25 00:20:17;;;;;;;14.63;11.57;;;;;;;17.75;100.00;100740.06;5267955;28;20024;-68
2021/07/25 00:22:49;;;;;;;14.60;12.03;;;;;;;17.71;100.00;100732.63;5267438;28;20475;-67
2021/07/25 00:25:20;;;;;;;13.47;12.07;;;;;;;17.73;100.00;100735.94;5251303;28;20474;-67
2021/07/25 00:27:55;;;;;;;13.53;12.23;;;;;;;17.72;100.00;100740.41;5268634;28;20067;-68
2021/07/25 00:30:27;;;;;;;14.38;12.30;;;;;;;17.68;100.00;100728.50;5268895;28;20028;-68
2021/07/25 00:32:59;;;;;;;13.75;12.40;;;;;;;17.66;100.00;100727.06;5245430;28;20051;-68
2021/07/25 00:35:30;;;;;;;13.60;12.15;;;;;;;17.66;100.00;100729.72;5263291;28;20032;-68
2021/07/25 00:38:01;;;;;;;13.60;12.15;;;;;;;17.66;100.00;100725.22;5260900;28;20483;-68
2021/07/25 00:40:43;;;;;;;13.17;11.87;;;;;;;17.73;100.00;100725.34;5265426;28;20486;-68
2021/07/25 00:43:28;;;;;;;13.25;11.60;;;;;;;17.70;100.00;100720.41;5268030;28;20036;-68
2021/07/25 00:46:00;;;;;;;14.68;12.32;;;;;;;17.60;100.00;100723.28;5261651;28;20047;-68
2021/07/25 00:48:34;;;;;;;12.50;10.83;;;;;;;17.55;100.00;100724.84;5267136;28;20071;-68
2021/07/25 00:51:06;;;;;;;13.82;12.43;;;;;;;17.56;100.00;100722.00;5270435;28;20462;-68
2021/07/25 00:53:40;;;;;;;14.10;11.52;;;;;;;17.53;100.00;100722.34;5272341;28;20040;-67
2021/07/25 00:56:11;;;;;;;12.85;11.38;;;;;;;17.46;100.00;100726.72;5268939;28;20035;-67
2021/07/25 00:58:43;;;;;;;14.35;12.85;;;;;;;17.49;100.00;100721.88;5269359;28;20028;-68
2021/07/25 01:01:14;;;;;;;13.30;11.95;;;;;;;17.46;100.00;100721.41;5271369;28;20036;-68
2021/07/25 01:04:14;;;;;;;12.20;10.70;;;;;;;17.50;100.00;100725.34;5263166;28;20080;-68
2021/07/25 01:07:11;;;;;;;11.38;10.27;;;;;;;17.43;100.00;100713.84;5260306;28;20440;-68
2021/07/25 01:09:51;;;;;;;15.88;10.88;;;;;;;17.35;100.00;100717.38;5269921;28;20037;-68
2021/07/25 01:12:50;;;;;;;12.25;11.05;;;;;;;17.41;100.00;100716.66;5273699;28;20032;-68
2021/07/25 01:15:26;;;;;;;13.52;11.93;;;;;;;17.27;100.00;100718.28;5273532;28;20466;-67
2021/07/25 01:18:00;;;;;;;13.18;11.88;;;;;;;17.31;100.00;100717.88;5272248;28;20028;-68
2021/07/25 01:20:32;;;;;;;13.02;11.63;;;;;;;17.26;100.00;100713.94;5271945;28;20505;-67
2021/07/25 01:23:03;;;;;;;11.80;10.65;;;;;;;17.26;100.00;100707.84;5273109;28;20094;-68
2021/07/25 01:25:35;;;;;;;12.70;11.15;;;;;;;17.19;100.00;100699.78;5272148;28;20521;-67
2021/07/25 01:28:23;;;;;;;12.25;10.90;;;;;;;17.28;100.00;100711.16;5267122;28;20058;-68
2021/07/25 01:30:57;;;;;;;12.35;11.15;;;;;;;17.22;100.00;100704.72;5275464;28;20028;-68
2021/07/25 01:33:32;;;;;;;13.30;11.52;;;;;;;17.23;100.00;100703.72;5254577;28;20039;-68
2021/07/25 01:36:03;;;;;;;13.07;11.63;;;;;;;17.22;100.00;100706.53;5273104;28;20485;-68
2021/07/25 01:38:35;;;;;;;13.68;12.27;;;;;;;17.25;100.00;100701.72;5270356;28;20028;-68
2021/07/25 01:41:15;;;;;;;12.90;11.50;;;;;;;17.34;100.00;100712.25;5273278;28;20504;-68
2021/07/25 01:43:49;;;;;;;12.80;11.30;;;;;;;17.26;100.00;100703.38;5267546;28;20043;-68
2021/07/25 01:46:21;;;;;;;12.30;11.00;;;;;;;17.25;100.00;100709.66;5273813;28;21365;-68
2021/07/25 01:48:52;;;;;;;12.82;11.52;;;;;;;17.25;100.00;100696.44;5273139;28;20460;-68
2021/07/25 01:51:23;;;;;;;12.75;11.45;;;;;;;17.23;100.00;100701.06;5273088;28;20024;-68
2021/07/25 01:53:54;;;;;;;12.80;11.50;;;;;;;17.23;100.00;100695.75;5264549;28;20052;-68
2021/07/25 01:56:26;;;;;;;12.23;11.03;;;;;;;17.21;100.00;100696.97;5264955;28;20040;-68
2021/07/25 01:58:58;;;;;;;13.68;11.65;;;;;;;17.18;100.00;100702.59;5273452;28;20068;-68
2021/07/25 02:01:30;;;;;;;13.95;11.48;;;;;;;17.10;100.00;100687.59;5271470;28;20090;-68
2021/07/25 02:04:01;;;;;;;12.95;10.98;;;;;;;17.06;100.00;100685.50;5274535;28;20376;-68
2021/07/25 02:06:34;;;;;;;11.98;10.70;;;;;;;17.06;100.00;100702.19;5273363;28;20559;-68
2021/07/25 02:09:08;;;;;;;12.07;10.88;;;;;;;17.00;100.00;100700.25;5267826;28;20032;-68
2021/07/25 02:11:39;;;;;;;12.27;10.98;;;;;;;16.93;100.00;100692.19;5262577;28;20056;-68
2021/07/25 02:14:11;;;;;;;11.60;10.40;;;;;;;16.91;100.00;100704.78;5275068;28;20024;-67
2021/07/25 02:16:42;;;;;;;12.60;9.85;;;;;;;16.85;100.00;100705.47;5273911;28;20037;-68
2021/07/25 02:19:13;;;;;;;11.23;10.13;;;;;;;16.78;100.00;100697.41;5257178;28;20470;-68
2021/07/25 02:21:44;;;;;;;11.70;10.50;;;;;;;16.75;100.00;100697.75;5271462;28;20024;-68
2021/07/25 02:24:16;;;;;;;11.57;10.38;;;;;;;16.69;100.00;100698.41;5265807;28;20028;-68
2021/07/25 02:26:48;;;;;;;11.15;9.85;;;;;;;16.66;100.00;100700.56;5272475;28;20481;-67
2021/07/25 02:29:20;;;;;;;12.32;11.05;;;;;;;16.59;100.00;100694.31;5266098;28;20597;-68
2021/07/25 02:31:52;;;;;;;12.45;10.38;;;;;;;16.59;100.00;100694.31;5272583;28;20031;-67
2021/07/25 02:34:23;;;;;;;11.47;10.27;;;;;;;16.59;100.00;100691.69;5264653;28;20118;-68
2021/07/25 02:36:54;;;;;;;12.45;11.00;;;;;;;16.57;100.00;100691.88;5240993;28;20036;-68
2021/07/25 02:39:26;;;;;;;11.63;10.43;;;;;;;16.54;100.00;100685.09;5270920;28;20032;-68
2021/07/25 02:41:58;;;;;;;13.23;10.98;;;;;;;16.54;100.00;100690.38;5273078;28;20020;-68
2021/07/25 02:44:29;;;;;;;12.32;10.00;;;;;;;16.52;100.00;100684.47;5270524;28;20032;-68
2021/07/25 02:47:01;;;;;;;12.95;10.40;;;;;;;16.50;100.00;100683.78;5270035;28;20127;-68
2021/07/25 02:49:32;;;;;;;13.70;12.13;;;;;;;16.49;100.00;100683.97;5271432;28;20458;-68
2021/07/25 02:52:04;;;;;;;12.02;10.82;;;;;;;16.47;100.00;100681.50;5273058;28;20461;-68
2021/07/25 02:54:35;;;;;;;12.90;11.48;;;;;;;16.46;100.00;100679.84;5272411;28;20035;-68
2021/07/25 02:57:06;;;;;;;11.10;9.98;;;;;;;16.45;100.00;100677.38;5271337;28;20112;-68
2021/07/25 02:59:38;;;;;;;12.50;11.25;;;;;;;16.44;100.00;100681.00;5270504;28;20040;-68
2021/07/25 03:02:10;;;;;;;13.60;11.40;;;;;;;16.44;100.00;100678.34;5270115;28;20061;-68
2021/07/25 03:04:42;;;;;;;12.68;11.40;;;;;;;16.39;100.00;100683.34;5270210;28;20104;-68
2021/07/25 03:07:14;;;;;;;13.63;11.60;;;;;;;16.36;100.00;100671.28;5270637;28;21068;-68
2021/07/25 03:09:45;;;;;;;12.68;11.38;;;;;;;16.41;100.00;100674.25;5272409;28;20060;-68
2021/07/25 03:12:16;;;;;;;12.55;11.38;;;;;;;16.35;100.00;100667.00;5271147;28;20525;-68
2021/07/25 03:14:48;;;;;;;13.95;11.75;;;;;;;16.36;100.00;100663.34;5272187;28;20032;-68
2021/07/25 03:17:19;;;;;;;12.30;11.07;;;;;;;16.36;100.00;100667.81;5269551;28;20024;-68
2021/07/25 03:19:50;;;;;;;15.85;12.68;;;;;;;16.36;100.00;100673.13;5271149;28;20020;-68
2021/07/25 03:22:22;;;;;;;14.23;12.50;;;;;;;16.35;100.00;100674.13;5270241;28;20040;-68
2021/07/25 03:24:53;;;;;;;13.10;11.73;;;;;;;16.35;100.00;100674.13;5269316;28;20028;-68
2021/07/25 03:27:25;;;;;;;15.18;13.57;;;;;;;16.32;100.00;100663.88;5269759;28;20663;-68
2021/07/25 03:29:56;;;;;;;14.02;11.63;;;;;;;16.35;100.00;100666.19;5271419;28;20438;-68
2021/07/25 03:32:27;;;;;;;13.60;11.80;;;;;;;16.34;100.00;100667.19;5271515;28;20032;-68
2021/07/25 03:34:59;;;;;;;13.60;12.27;;;;;;;16.32;100.00;100662.06;5268983;28;20055;-68
2021/07/25 03:37:30;;;;;;;14.80;12.23;;;;;;;16.32;100.00;100664.69;5271604;28;20031;-68
2021/07/25 03:40:02;;;;;;;13.88;12.38;;;;;;;16.30;100.00;100661.41;5270894;28;20064;-67
2021/07/25 03:42:34;;;;;;;13.82;12.35;;;;;;;16.30;100.00;100654.31;5267299;28;20032;-68
2021/07/25 03:45:06;;;;;;;15.45;13.50;;;;;;;16.29;100.00;100657.97;5269144;28;20082;-68
2021/07/25 03:47:39;;;;;;;13.10;11.63;;;;;;;16.29;100.00;100657.13;5271833;28;20052;-68
2021/07/25 03:50:10;;;;;;;12.70;11.23;;;;;;;16.26;100.00;100655.66;5269443;28;20040;-68
2021/07/25 03:52:41;;;;;;;13.98;12.55;;;;;;;16.23;100.00;100650.69;5270999;28;20652;-68
2021/07/25 03:55:13;;;;;;;13.70;12.25;;;;;;;16.24;100.00;100654.97;5268217;28;20035;-67
2021/07/25 03:57:45;;;;;;;12.57;11.30;;;;;;;16.23;100.00;100650.69;5267330;28;20068;-68
2021/07/25 04:00:17;;;;;;;13.77;12.38;;;;;;;16.24;100.00;100652.34;5267489;28;20029;-68
2021/07/25 04:02:48;;;;;;;13.00;11.60;;;;;;;16.19;100.00;100646.75;5251013;28;20024;-68
2021/07/25 04:05:19;;;;;;;13.05;11.43;;;;;;;16.20;100.00;100656.31;5268844;28;20024;-68
2021/07/25 04:07:50;;;;;;;13.32;11.95;;;;;;;16.14;100.00;100653.53;5267888;28;20035;-68
2021/07/25 04:10:22;;;;;;;13.32;11.93;;;;;;;16.14;100.00;100648.25;5271210;28;20028;-68
2021/07/25 04:12:53;;;;;;;13.07;11.70;;;;;;;16.14;100.00;100648.25;5269914;28;20066;-68
2021/07/25 04:15:24;;;;;;;13.25;11.70;;;;;;;16.15;100.00;100649.91;5265714;28;20123;-68
2021/07/25 04:17:55;;;;;;;14.38;11.70;;;;;;;16.16;100.00;100647.09;5266775;28;20160;-68
2021/07/25 04:20:27;;;;;;;14.10;12.57;;;;;;;16.15;100.00;100650.75;5270108;28;20124;-67
2021/07/25 04:22:58;;;;;;;14.27;11.73;;;;;;;16.13;100.00;100644.78;5268337;28;20032;-68
2021/07/25 04:25:30;;;;;;;12.85;10.82;;;;;;;16.16;100.00;100655.03;5267328;28;20049;-68
2021/07/25 04:28:03;;;;;;;11.93;10.75;;;;;;;16.18;100.00;100653.03;5268928;28;20028;-68
2021/07/25 04:30:35;;;;;;;14.00;12.23;;;;;;;16.17;100.00;100658.47;5269586;28;20092;-68
2021/07/25 04:33:07;;;;;;;13.80;11.88;;;;;;;16.19;100.00;100662.63;5269397;28;20394;-68
2021/07/25 04:35:39;;;;;;;15.40;11.70;;;;;;;16.21;100.00;100663.28;5269729;28;20116;-68
2021/07/25 04:38:11;;;;;;;15.50;12.82;;;;;;;16.21;100.00;100659.78;5269821;28;20036;-68
2021/07/25 04:40:53;;;;;;;13.95;12.00;;;;;;;16.27;100.00;100665.22;5271730;28;20040;-68
2021/07/25 04:43:28;;;;;;;16.20;11.68;;;;;;;16.28;100.00;100666.84;5268563;28;20583;-68
2021/07/25 04:46:22;;;;;;;13.43;12.05;;;;;;;16.39;100.00;100662.19;5269923;28;20032;-68
2021/07/25 04:49:11;;;;;;;15.40;13.07;;;;;;;16.43;100.00;100664.31;5269551;28;20028;-67
2021/07/25 04:51:44;;;;;;;16.08;12.80;;;;;;;16.42;100.00;100664.50;5270551;28;20032;-68
2021/07/25 04:54:17;;;;;;;15.82;12.40;;;;;;;16.48;100.00;100658.53;5268605;28;20040;-68
2021/07/25 04:56:57;;;;;;;15.63;12.43;;;;;;;16.53;100.00;100658.84;5269775;28;20485;-67
2021/07/25 04:59:30;;;;;;;16.10;12.45;;;;;;;16.56;100.00;100663.78;5270451;28;20028;-67
2021/07/25 05:02:05;;;;;;;15.80;12.93;;;;;;;16.59;100.00;100666.06;5268102;28;20506;-68
2021/07/25 05:04:36;;;;;;;14.02;12.63;;;;;;;16.60;100.00;100662.44;5267899;28;20120;-68
2021/07/25 05:07:10;;;;;;;15.10;13.50;;;;;;;16.65;100.00;100667.19;5267265;28;20028;-68
2021/07/25 05:09:42;;;;;;;17.85;13.27;;;;;;;16.65;100.00;100659.25;5270711;28;20036;-68
2021/07/25 05:12:29;;;;;;;16.63;14.00;;;;;;;16.65;100.00;100662.72;5268852;28;20064;-68
2021/07/25 05:15:10;;;;;;;14.93;12.73;;;;;;;16.71;100.00;100663.88;5268201;28;20413;-68
2021/07/25 05:17:42;;;;;;;20.55;14.63;;;;;;;16.70;100.00;100670.94;5267274;28;20028;-68
2021/07/25 05:20:17;;;;;;;15.88;13.57;;;;;;;16.70;100.00;100670.94;5267151;28;20101;-67
2021/07/25 05:23:03;;;;;;;17.48;14.68;;;;;;;16.77;100.00;100671.94;5268286;28;20093;-68
2021/07/25 05:25:38;;;;;;;16.60;14.18;;;;;;;16.72;100.00;100676.91;5254318;28;20025;-68
2021/07/25 05:28:09;;;;;;;19.13;15.32;;;;;;;16.74;100.00;100682.03;5270432;28;20032;-67
2021/07/25 05:30:43;;;;;;;17.63;15.63;;;;;;;16.75;100.00;100675.78;5271554;28;20039;-68
2021/07/25 05:33:14;;;;;;;22.05;16.90;;;;;;;16.76;100.00;100678.22;5271546;28;20040;-67
2021/07/25 05:35:46;;;;;;;19.35;17.00;;;;;;;16.80;100.00;100670.78;5269057;28;20213;-68
2021/07/25 05:38:18;;;;;;;19.48;17.42;;;;;;;16.85;100.00;100678.19;5268551;28;20025;-67
2021/07/25 05:40:50;;;;;;;19.13;17.13;;;;;;;16.90;100.00;100676.66;5269741;28;20094;-67
2021/07/25 05:43:21;;;;;;;20.77;18.58;;;;;;;16.93;100.00;100667.53;5269490;28;20481;-68
2021/07/25 05:45:52;;;;;;;20.10;17.23;;;;;;;17.01;100.00;100672.81;5270915;28;20039;-69
2021/07/25 05:48:24;;;;;;;22.63;16.52;;;;;;;17.12;100.00;100674.19;5267997;28;20480;-68
2021/07/25 05:50:55;;;;;;;17.70;15.80;;;;;;;17.20;100.00;100674.16;5270739;28;20067;-68
2021/07/25 05:53:26;;;;;;;19.63;15.43;;;;;;;17.30;100.00;100671.25;5269644;28;20040;-68
2021/07/25 05:55:58;;;;;;;17.90;15.68;;;;;;;17.37;100.00;100674.81;5267794;28;20971;-67
2021/07/25 05:58:29;;;;;;;19.80;16.58;;;;;;;17.44;100.00;100668.63;5274122;28;20021;-68
2021/07/25 06:01:01;;;;;;;19.63;16.23;;;;;;;17.47;100.00;100673.59;5272519;28;20031;-67
2021/07/25 06:03:32;;;;;;;19.25;16.45;;;;;;;17.56;100.00;100678.78;5270495;28;20055;-67
2021/07/25 06:06:07;;;;;;;18.67;15.55;;;;;;;17.64;100.00;100679.53;5272560;28;20081;-68
2021/07/25 06:08:39;;;;;;;17.50;15.20;;;;;;;17.62;100.00;100676.25;5274586;28;20375;-68
2021/07/25 06:11:10;;;;;;;15.90;14.15;;;;;;;17.73;100.00;100672.34;5251277;28;20029;-68
2021/07/25 06:13:41;;;;;;;18.00;15.35;;;;;;;17.73;100.00;100667.06;5243827;28;20032;-68
2021/07/25 06:16:12;;;;;;;16.60;14.80;;;;;;;17.85;100.00;100670.09;5264181;28;20055;-68
2021/07/25 06:18:48;;;;;;;18.80;16.20;;;;;;;17.93;100.00;100659.41;5271372;28;21175;-68
2021/07/25 06:21:20;;;;;;;17.45;14.55;;;;;;;18.01;100.00;100669.91;5273104;28;20024;-68
2021/07/25 06:23:52;;;;;;;18.15;14.00;;;;;;;18.13;100.00;100664.97;5272059;28;20390;-68
2021/07/25 06:26:24;;;;;;;16.92;13.45;;;;;;;18.24;100.00;100661.88;5267036;28;20071;-68
2021/07/25 06:28:55;;;;;;;15.53;13.17;;;;;;;18.26;100.00;100666.97;5271696;28;20040;-67
2021/07/25 06:31:26;;;;;;;14.63;13.00;;;;;;;18.33;100.00;100665.22;5267075;28;20024;-68
2021/07/25 06:33:58;;;;;;;18.53;14.33;;;;;;;18.38;100.00;100673.47;5262838;28;20032;-68
2021/07/25 06:36:29;;;;;;;16.67;13.53;;;;;;;18.45;100.00;100667.22;5274053;28;20058;-67
2021/07/25 06:39:01;;;;;;;15.57;12.60;;;;;;;18.61;100.00;100678.63;5273407;28;20039;-70
2021/07/25 06:41:32;;;;;;;14.55;13.07;;;;;;;18.69;100.00;100678.53;5270901;28;20382;-67
2021/07/25 06:44:04;;;;;;;15.25;13.00;;;;;;;18.77;100.00;100681.09;5259305;28;20032;-67
2021/07/25 06:46:35;;;;;;;20.93;13.77;;;;;;;18.80;100.00;100678.06;5272221;28;20493;-67
2021/07/25 06:49:06;;;;;;;16.48;12.32;;;;;;;18.88;100.00;100677.94;5273891;28;20077;-67
2021/07/25 06:51:37;;;;;;;14.60;11.77;;;;;;;18.94;100.00;100686.97;5239609;28;20488;-67
2021/07/25 06:54:09;;;;;;;23.57;12.53;;;;;;;19.03;100.00;100680.53;5269231;28;20499;-67
2021/07/25 06:56:41;;;;;;;12.43;11.13;;;;;;;19.08;100.00;100682.63;5270406;28;20086;-67
2021/07/25 06:59:15;;;;;;;17.23;11.02;;;;;;;19.17;100.00;100684.16;5270862;28;20525;-67
2021/07/25 07:01:46;;;;;;;13.27;10.85;;;;;;;19.20;100.00;100687.22;5268212;28;20038;-68
2021/07/25 07:04:18;;;;;;;12.43;9.77;;;;;;;19.37;100.00;100685.16;5272074;28;20413;-68
2021/07/25 07:06:49;;;;;;;11.70;9.97;;;;;;;19.41;100.00;100685.59;5254518;28;20462;-67
2021/07/25 07:09:20;;;;;;;12.37;10.03;;;;;;;19.50;100.00;100695.03;5271817;28;20489;-67
2021/07/25 07:11:51;;;;;;;13.20;8.97;;;;;;;19.59;100.00;100693.91;5269691;28;20493;-68
2021/07/25 07:14:23;;;;;;;16.50;9.80;;;;;;;19.60;100.00;100692.88;5269838;28;20460;-68
2021/07/25 07:16:54;;;;;;;10.20;8.43;;;;;;;19.69;100.00;100691.75;5266635;28;20032;-68
2021/07/25 07:19:25;;;;;;;11.97;8.93;;;;;;;19.74;100.00;100698.34;5266466;28;20044;-68
2021/07/25 07:21:56;;;;;;;12.07;8.80;;;;;;;19.74;100.00;100693.03;5242847;28;20191;-69
2021/07/25 07:24:28;;;;;;;11.87;8.07;;;;;;;19.80;100.00;100694.91;5266353;28;20565;-70
2021/07/25 07:26:59;;;;;;;11.27;8.17;;;;;;;19.88;100.00;100698.22;5263785;28;20479;-70
2021/07/25 07:29:30;;;;;;;12.13;7.87;;;;;;;20.05;100.00;100690.78;5272623;28;20111;-67
2021/07/25 07:32:02;;;;;;;11.97;8.13;;;;;;;20.07;100.00;100690.56;5251787;28;20024;-67
2021/07/25 07:34:33;;;;;;;10.43;7.97;;;;;;;20.22;100.00;100688.59;5270055;28;20378;-70
2021/07/25 07:37:04;;;;;;;8.23;7.27;;;;;;;20.30;100.00;100698.25;5272266;28;20028;-67
2021/07/25 07:39:37;;;;;;;8.93;6.37;;;;;;;20.34;100.00;100692.34;5272727;28;20059;-70
2021/07/25 07:42:13;;;;;;;9.05;7.13;;;;;;;20.53;100.00;100682.84;5263365;28;20081;-70
2021/07/25 07:44:44;;;;;;;11.13;7.10;;;;;;;20.57;100.00;100684.09;5269665;28;20025;-70
2021/07/25 07:47:19;;;;;;;8.97;7.13;;;;;;;20.69;100.00;100692.31;5265209;28;20098;-70
2021/07/25 07:49:51;;;;;;;8.38;6.40;;;;;;;20.80;100.00;100685.59;5251333;28;20596;-68
2021/07/25 07:52:23;;;;;;;12.47;7.03;;;;;;;20.97;100.00;100686.84;5264515;28;20074;-70
2021/07/25 07:55:05;;;;;;;10.30;7.20;;;;;;;21.02;100.00;100695.03;5264266;28;20075;-69
2021/07/25 07:57:36;;;;;;;9.88;6.47;;;;;;;21.14;100.00;100690.78;5252700;28;20437;-68
2021/07/25 08:00:08;;;;;;;10.53;6.70;;;;;;;21.14;100.00;100682.78;5272257;28;20162;-67
2021/07/25 08:02:40;;;;;;;8.60;7.03;;;;;;;21.31;100.00;100691.19;5267557;28;20024;-68
2021/07/25 08:05:12;;;;;;;8.67;6.40;;;;;;;21.55;100.00;100691.63;5268751;28;20051;-68
2021/07/25 08:07:43;;;;;;;10.55;6.05;;;;;;;21.57;100.00;100701.06;5266602;28;20036;-68
2021/07/25 08:10:15;;;;;;;10.13;6.60;;;;;;;21.57;100.00;100703.72;5270049;28;20036;-68
2021/07/25 08:12:48;;;;;;;10.05;6.05;;;;;;;21.76;100.00;100698.59;5268207;28;20083;-68
2021/07/25 08:15:20;;;;;;;8.75;6.68;;;;;;;21.96;100.00;100695.88;5269755;28;20029;-69
2021/07/25 08:17:51;;;;;;;9.55;5.57;;;;;;;21.87;100.00;100700.63;5265420;28;20050;-69
2021/07/25 08:20:22;;;;;;;7.70;5.80;;;;;;;21.92;99.86;100703.47;5265223;28;20481;-69
2021/07/25 08:22:54;;;;;;;8.93;5.70;;;;;;;22.15;99.86;100708.38;5268891;28;20055;-69
2021/07/25 08:25:35;;;;;;;8.05;5.78;;;;;;;22.28;99.47;100705.69;5250764;28;20025;-69
2021/07/25 08:28:07;;;;;;;11.23;6.57;;;;;;;22.32;98.12;100703.41;5268252;28;20032;-69
2021/07/25 08:30:38;;;;;;;9.57;6.17;;;;;;;22.49;98.08;100709.09;5270035;28;20031;-69
2021/07/25 08:33:09;;;;;;;8.30;5.13;;;;;;;22.69;97.69;100720.50;5243566;28;20481;-69
2021/07/25 08:35:41;;;;;;;7.50;5.57;;;;;;;22.74;96.00;100706.53;5270294;28;20029;-69
2021/07/25 08:38:13;;;;;;;9.97;5.97;;;;;;;22.89;95.33;100715.06;5268271;28;20114;-70
2021/07/25 08:41:05;;;;;;;;;;;;;;;23.19;94.51;100719.84;5250607;28;20047;-68
2021/07/25 08:43:39;;;;;;;7.32;5.47;;;;;;;23.05;92.24;100719.91;5261888;28;19923;-69
2021/07/25 08:46:13;;;;;;;7.55;5.18;;;;;;;23.24;91.11;100717.34;5266222;28;20223;-69
2021/07/25 08:48:50;;;;;;;5.68;5.00;;;;;;;23.29;90.84;100715.63;5265894;28;20644;-69
2021/07/25 08:51:34;;;;;;;7.40;4.57;;;;;;;23.44;91.09;100715.31;5269925;28;20066;-69
2021/07/25 08:54:08;;;;;;;7.25;4.82;;;;;;;23.52;90.77;100724.91;5268885;28;20481;-69
2021/07/25 08:56:39;;;;;;;6.30;4.72;;;;;;;23.58;87.58;100725.91;5244323;28;20510;-69
2021/07/25 08:59:12;;;;;;;6.97;4.63;;;;;;;23.74;86.78;100712.00;5270974;28;20028;-69
2021/07/25 09:01:48;;;;;;;6.72;4.30;;;;;;;23.70;83.75;100718.84;5268592;28;20048;-68
2021/07/25 09:04:20;;;;;;;6.63;3.83;;;;;;;23.75;83.70;100719.84;5267650;28;20477;-69
2021/07/25 09:06:51;;;;;;;6.13;3.73;;;;;;;24.06;84.16;100711.91;5269447;28;20025;-69
2021/07/25 09:09:23;;;;;;;6.30;4.00;;;;;;;24.05;83.41;100721.78;5267950;28;20039;-70
2021/07/25 09:11:54;;;;;;;22.07;6.00;;;;;;;24.13;84.72;100721.50;5271364;28;20068;-69
2021/07/25 09:14:26;;;;;;;8.83;5.40;;;;;;;24.14;82.54;100715.13;5272055;28;20025;-69
2021/07/25 09:16:57;;;;;;;6.00;3.83;;;;;;;24.24;83.54;100717.25;5272559;28;20394;-69
2021/07/25 09:19:29;;;;;;;5.93;4.93;;;;;;;24.36;82.30;100722.69;5268364;28;20028;-69
2021/07/25 09:22:01;;;;;;;6.70;4.50;;;;;;;24.41;82.19;100720.19;5271336;28;20028;-69
2021/07/25 09:24:33;;;;;;;;;;;;;;;24.79;82.40;100713.75;5270746;28;20026;-69
2021/07/25 09:27:06;;;;;;;5.50;3.87;;;;;;;24.72;79.69;100719.19;5269716;28;20441;-70
2021/07/25 09:29:37;;;;;;;6.95;3.92;;;;;;;24.78;78.80;100718.28;5269107;28;20298;-70
2021/07/25 09:32:18;;;;;;;7.03;3.63;;;;;;;25.06;80.22;100712.31;5270709;28;20016;-70
2021/07/25 09:34:50;;;;;;;5.60;3.38;;;;;;;25.00;79.83;100714.06;5268788;28;20032;-70
2021/07/25 09:37:22;;;;;;;4.97;3.45;;;;;;;25.08;76.75;100714.75;5272434;28;20089;-70
2021/07/25 09:39:55;;;;;;;5.72;3.28;;;;;;;25.08;78.58;100712.91;5270010;28;20032;-70
2021/07/25 09:42:31;;;;;;;4.32;2.80;;;;;;;25.22;76.54;100713.53;5271668;28;20037;-70
2021/07/25 09:45:03;;;;;;;6.07;2.90;;;;;;;25.24;75.04;100708.78;5269779;28;20355;-70
2021/07/25 09:47:38;;;;;;;5.55;3.33;;;;;;;25.26;75.93;100712.03;5272724;28;20048;-70
2021/07/25 09:50:10;;;;;;;5.68;3.42;;;;;;;25.16;76.33;100711.78;5266544;28;20029;-70
2021/07/25 09:52:41;;;;;;;6.33;3.07;;;;;;;25.22;76.10;100703.63;5245536;28;20424;-70
2021/07/25 09:55:13;;;;;;;4.97;3.17;;;;;;;25.51;75.42;100702.97;5272725;28;20025;-70
2021/07/25 09:57:54;;;;;;;10.20;3.20;;;;;;;25.50;72.50;100709.41;5273042;28;20123;-70
2021/07/25 10:00:40;;;;;;;5.60;2.97;;;;;;;25.60;73.38;100709.63;5271677;28;20422;-70
2021/07/25 10:03:18;;;;;;;7.43;2.95;;;;;;;25.73;74.20;100709.41;5266075;28;20453;-69
2021/07/25 10:05:51;;;;;;;6.18;3.28;;;;;;;25.73;72.86;100704.84;5274962;28;20047;-69
2021/07/25 10:08:22;;;;;;;4.85;3.20;;;;;;;25.63;72.07;100703.78;5273677;28;20390;-69
2021/07/25 10:10:54;;;;;;;3.80;2.70;;;;;;;25.93;72.23;100704.50;5272204;28;20029;-69
2021/07/25 10:13:26;;;;;;;3.60;2.80;;;;;;;25.90;72.04;100706.84;5275169;28;20113;-69
2021/07/25 10:16:00;;;;;;;4.57;2.42;;;;;;;26.09;72.09;100700.28;5272770;28;20024;-69
2021/07/25 10:18:33;;;;;;;4.43;2.78;;;;;;;26.14;70.00;100704.97;5272625;28;20029;-68
2021/07/25 10:21:04;;;;;;;5.97;3.00;;;;;;;26.06;71.00;100703.44;5274288;28;20070;-68
2021/07/25 10:23:43;;;;;;;8.03;2.93;;;;;;;26.25;69.86;100695.22;5274758;28;20071;-68
2021/07/25 10:26:16;;;;;;;5.97;2.70;;;;;;;26.30;70.56;100696.16;5275340;28;21005;-68
2021/07/25 10:28:48;;;;;;;4.05;2.50;;;;;;;26.34;69.20;100696.50;5274992;28;20036;-68
2021/07/25 10:31:22;;;;;;;8.97;2.87;;;;;;;26.41;69.54;100697.19;5275584;28;20649;-68
2021/07/25 10:33:54;;;;;;;4.97;2.63;;;;;;;26.49;69.32;100698.72;5274343;28;20141;-68
2021/07/25 10:36:26;;;;;;;;;;;;;;;26.85;68.89;100706.38;5273162;28;20032;-68
2021/07/25 10:38:58;;;;;;;4.33;2.53;;;;;;;26.79;69.58;100695.78;5273454;28;20370;-69
2021/07/25 10:41:30;;;;;;;5.67;3.00;;;;;;;26.90;69.30;100694.91;5272282;28;20186;-69
2021/07/25 10:44:02;;;;;;;4.57;2.58;;;;;;;26.83;68.08;100697.75;5263234;28;20037;-69
2021/07/25 10:46:33;;;;;;;4.30;2.45;;;;;;;26.79;66.55;100701.97;5271369;28;20020;-69
2021/07/25 10:49:05;;;;;;;4.20;2.87;;;;;;;26.71;66.55;100697.00;5270964;28;20059;-69
2021/07/25 10:51:55;;;;;;;6.40;3.05;;;;;;;26.50;69.26;100692.28;5272748;28;20591;-68
2021/07/25 10:54:26;;;;;;;5.57;2.63;;;;;;;26.53;69.62;100691.81;5271573;28;20394;-69
2021/07/25 10:57:02;;;;;;;4.93;2.50;;;;;;;26.67;66.76;100687.78;5264860;28;20028;-69
2021/07/25 10:59:42;;;;;;;4.57;2.40;;;;;;;27.11;68.03;100682.66;5272690;28;20586;-68
2021/07/25 11:02:24;;;;;;;4.43;2.60;;;;;;;27.12;65.33;100681.59;5262873;28;20070;-69
2021/07/25 11:04:55;;;;;;;4.43;2.30;;;;;;;27.41;65.70;100687.72;5261713;28;20033;-69
2021/07/25 11:07:27;;;;;;;5.57;2.17;;;;;;;27.59;64.06;100681.25;5269477;28;20074;-69
2021/07/25 11:10:05;;;;;;;4.73;2.83;;;;;;;27.52;65.95;100680.63;5273966;28;20150;-69
2021/07/25 11:12:52;;;;;;;5.10;2.60;;;;;;;27.68;64.73;100687.84;5271951;28;20080;-69
2021/07/25 11:15:32;;;;;;;4.85;2.25;;;;;;;27.59;61.67;100682.06;5274289;28;20478;-69
2021/07/25 11:18:05;;;;;;;5.55;2.40;;;;;;;27.68;63.94;100676.25;5270419;28;20047;-69
2021/07/25 11:20:42;;;;;;;4.07;2.10;;;;;;;27.56;64.35;100679.06;5267623;28;20072;-69
2021/07/25 11:23:19;;;;;;;4.60;2.50;;;;;;;27.70;63.01;100688.41;5273390;28;20056;-69
2021/07/25 11:25:52;;;;;;;4.88;2.38;;;;;;;27.64;61.36;100679.44;5272044;28;20028;-69
2021/07/25 11:28:41;;;;;;;6.03;2.25;;;;;;;27.87;62.70;100685.72;5270426;28;20685;-69
2021/07/25 11:31:14;;;;;;;3.42;2.10;;;;;;;27.57;62.09;100686.06;5272431;28;20042;-68
2021/07/25 11:33:47;;;;;;;3.63;1.80;;;;;;;27.29;60.82;100687.00;5274110;28;20024;-69
2021/07/25 11:36:21;;;;;;;3.67;2.10;;;;;;;27.00;61.78;100680.81;5271822;28;20028;-69